createdAt,value
2023-12-19T00:00:38.999Z,99.90
2023-12-19T00:03:06.663Z,99.90
2023-12-19T00:05:34.067Z,99.90
2023-12-19T00:08:02.841Z,99.90
2023-12-19T00:10:30.591Z,99.90
2023-12-19T00:12:57.998Z,99.90
2023-12-19T00:15:25.427Z,99.90
2023-12-19T00:17:52.934Z,99.90
2023-12-19T00:20:20.339Z,99.90
2023-12-19T00:22:48.530Z,99.90
2023-12-19T00:25:15.930Z,99.90
2023-12-19T00:27:43.441Z,99.90
2023-12-19T00:30:11.372Z,99.90
2023-12-19T00:32:39.591Z,99.90
2023-12-19T00:35:07.552Z,99.90
2023-12-19T00:37:35.038Z,99.90
2023-12-19T00:40:03.204Z,99.90
2023-12-19T00:42:30.522Z,99.90
2023-12-19T00:44:57.911Z,99.90
2023-12-19T00:47:25.194Z,99.90
2023-12-19T00:49:52.638Z,99.90
2023-12-19T00:52:20.073Z,99.90
2023-12-19T00:54:47.393Z,99.90
2023-12-19T00:57:14.814Z,99.90
2023-12-19T00:59:44.464Z,99.90
2023-12-19T01:02:11.723Z,99.90
2023-12-19T01:04:39.231Z,99.90
2023-12-19T01:07:06.726Z,99.90
2023-12-19T01:09:34.056Z,99.90
2023-12-19T01:12:01.639Z,99.90
2023-12-19T01:14:28.912Z,99.90
2023-12-19T01:16:56.250Z,99.90
2023-12-19T01:19:23.642Z,99.90
2023-12-19T01:21:51.162Z,99.90
2023-12-19T01:24:18.563Z,99.90
2023-12-19T01:26:48.025Z,99.90
2023-12-19T01:29:15.307Z,99.90
2023-12-19T01:31:42.941Z,99.90
2023-12-19T01:34:10.926Z,99.90
2023-12-19T01:36:42.777Z,99.90
2023-12-19T01:39:23.724Z,99.90
2023-12-19T01:41:51.054Z,99.90
2023-12-19T01:44:19.612Z,99.90
2023-12-19T01:46:47.830Z,99.90
2023-12-19T01:49:16.072Z,99.90
2023-12-19T01:51:43.867Z,99.90
2023-12-19T01:54:12.243Z,99.90
2023-12-19T01:56:40.276Z,99.90
2023-12-19T01:59:08.556Z,99.90
2023-12-19T02:01:36.380Z,99.90
2023-12-19T02:04:04.733Z,99.90
2023-12-19T02:06:34.767Z,99.90
2023-12-19T02:09:02.997Z,99.90
2023-12-19T02:11:30.839Z,99.90
2023-12-19T02:13:59.616Z,99.90
2023-12-19T02:16:27.676Z,99.90
2023-12-19T02:19:02.925Z,99.90
2023-12-19T02:21:31.065Z,99.90
2023-12-19T02:23:58.706Z,99.90
2023-12-19T02:26:26.640Z,99.90
2023-12-19T02:28:54.179Z,99.90
2023-12-19T02:31:22.106Z,99.90
2023-12-19T02:33:49.844Z,99.90
2023-12-19T02:36:18.080Z,99.90
2023-12-19T02:38:45.521Z,99.90
2023-12-19T02:41:12.885Z,99.90
2023-12-19T02:43:53.334Z,99.90
2023-12-19T02:46:24.421Z,99.90
2023-12-19T02:48:52.191Z,99.90
2023-12-19T02:51:21.296Z,99.90
2023-12-19T02:53:48.957Z,99.90
2023-12-19T02:56:16.286Z,99.90
2023-12-19T02:58:43.942Z,99.90
2023-12-19T03:01:11.489Z,99.90
2023-12-19T03:03:42.698Z,99.90
2023-12-19T03:06:10.491Z,99.90
2023-12-19T03:08:38.054Z,99.90
2023-12-19T03:11:05.385Z,99.90
2023-12-19T03:13:32.648Z,99.90
2023-12-19T03:16:00.280Z,99.90
2023-12-19T03:18:27.815Z,99.90
2023-12-19T03:20:56.132Z,99.90
2023-12-19T03:23:23.592Z,99.90
2023-12-19T03:25:51.357Z,99.90
2023-12-19T03:28:18.644Z,99.90
2023-12-19T03:30:46.059Z,99.90
2023-12-19T03:33:13.476Z,99.90
2023-12-19T03:35:41.216Z,99.90
2023-12-19T03:38:08.928Z,99.90
2023-12-19T03:40:37.990Z,99.90
2023-12-19T03:43:05.318Z,99.90
2023-12-19T03:45:32.665Z,99.90
2023-12-19T03:48:00.150Z,99.90
2023-12-19T03:50:27.728Z,99.90
2023-12-19T03:52:55.037Z,99.90
2023-12-19T03:55:22.366Z,99.90
2023-12-19T03:57:49.679Z,99.90
2023-12-19T04:00:16.979Z,99.90
2023-12-19T04:02:44.476Z,99.90
2023-12-19T04:05:11.907Z,99.90
2023-12-19T04:07:39.196Z,99.90
2023-12-19T04:10:06.842Z,99.90
2023-12-19T04:12:34.306Z,99.90
2023-12-19T04:15:01.626Z,99.90
2023-12-19T04:17:29.036Z,99.90
2023-12-19T04:19:56.515Z,99.90
2023-12-19T04:22:23.955Z,99.90
2023-12-19T04:24:51.320Z,99.90
2023-12-19T04:27:18.625Z,99.90
2023-12-19T04:29:46.903Z,99.90
2023-12-19T04:32:14.980Z,99.90
2023-12-19T04:34:42.434Z,99.90
2023-12-19T04:37:09.851Z,99.90
2023-12-19T04:39:37.311Z,99.90
2023-12-19T04:42:08.453Z,99.90
2023-12-19T04:44:35.812Z,99.90
2023-12-19T04:47:03.818Z,99.90
2023-12-19T04:49:31.407Z,99.90
2023-12-19T04:51:58.859Z,99.90
2023-12-19T04:54:26.637Z,99.90
2023-12-19T04:56:53.968Z,99.90
2023-12-19T04:59:21.601Z,99.90
2023-12-19T05:01:48.977Z,99.90
2023-12-19T05:04:16.334Z,99.90
2023-12-19T05:06:43.776Z,99.90
2023-12-19T05:09:11.105Z,99.90
2023-12-19T05:11:38.384Z,99.90
2023-12-19T05:14:05.661Z,99.90
2023-12-19T05:16:33.000Z,99.90
2023-12-19T05:19:00.417Z,99.90
2023-12-19T05:21:27.748Z,99.90
2023-12-19T05:23:55.356Z,99.90
2023-12-19T05:26:22.730Z,99.90
2023-12-19T05:28:51.403Z,99.90
2023-12-19T05:31:19.625Z,99.90
2023-12-19T05:33:47.291Z,99.90
2023-12-19T05:36:15.144Z,99.90
2023-12-19T05:38:42.454Z,99.90
2023-12-19T05:41:15.803Z,99.90
2023-12-19T05:43:43.363Z,99.90
2023-12-19T05:46:10.851Z,99.90
2023-12-19T05:48:38.474Z,99.90
2023-12-19T05:51:06.169Z,99.90
2023-12-19T05:53:33.481Z,99.90
2023-12-19T05:56:01.271Z,99.90
2023-12-19T05:58:28.524Z,99.90
2023-12-19T06:00:57.350Z,99.90
2023-12-19T06:03:25.001Z,99.90
2023-12-19T06:05:52.382Z,99.90
2023-12-19T06:08:19.709Z,99.90
2023-12-19T06:10:47.652Z,99.90
2023-12-19T06:13:15.469Z,99.90
2023-12-19T06:15:42.888Z,99.90
2023-12-19T06:18:10.370Z,99.90
2023-12-19T06:20:37.798Z,99.90
2023-12-19T06:23:05.120Z,99.90
2023-12-19T06:25:33.929Z,99.90
2023-12-19T06:28:01.396Z,99.90
2023-12-19T06:30:32.222Z,99.90
2023-12-19T06:33:02.588Z,99.90
2023-12-19T06:35:31.080Z,99.90
2023-12-19T06:37:58.390Z,99.90
2023-12-19T06:40:26.881Z,99.90
2023-12-19T06:42:55.659Z,99.90
2023-12-19T06:45:23.243Z,99.90
2023-12-19T06:47:50.663Z,99.90
2023-12-19T06:50:19.718Z,99.90
2023-12-19T06:52:47.952Z,99.90
2023-12-19T06:55:15.528Z,99.90
2023-12-19T06:57:43.050Z,99.90
2023-12-19T07:00:10.880Z,99.90
2023-12-19T07:02:38.224Z,99.90
2023-12-19T07:05:06.238Z,99.90
2023-12-19T07:07:33.698Z,99.90
2023-12-19T07:10:02.102Z,99.90
2023-12-19T07:12:29.683Z,99.90
2023-12-19T07:14:57.103Z,99.90
2023-12-19T07:17:24.463Z,99.90
2023-12-19T07:19:52.144Z,99.90
2023-12-19T07:22:19.588Z,99.90
2023-12-19T07:24:47.372Z,99.90
2023-12-19T07:27:14.769Z,99.90
2023-12-19T07:29:42.096Z,99.90
2023-12-19T07:32:10.238Z,99.90
2023-12-19T07:34:37.653Z,99.90
2023-12-19T07:37:05.179Z,99.90
2023-12-19T07:39:32.486Z,99.90
2023-12-19T07:41:59.794Z,99.90
2023-12-19T07:44:27.085Z,99.90
2023-12-19T07:46:54.361Z,99.90
2023-12-19T07:49:21.787Z,99.90
2023-12-19T07:51:50.123Z,99.90
2023-12-19T07:54:18.350Z,99.90
2023-12-19T07:56:45.626Z,99.90
2023-12-19T07:59:14.329Z,99.90
2023-12-19T08:01:42.492Z,99.90
2023-12-19T08:04:10.153Z,99.90
2023-12-19T08:06:37.721Z,99.90
2023-12-19T08:09:05.521Z,99.90
2023-12-19T08:11:32.780Z,99.90
2023-12-19T08:14:00.082Z,99.90
2023-12-19T08:16:27.399Z,99.90
2023-12-19T08:18:54.838Z,99.90
2023-12-19T08:21:22.193Z,99.90
2023-12-19T08:23:49.915Z,99.90
2023-12-19T08:26:17.328Z,99.90
2023-12-19T08:28:44.768Z,99.90
2023-12-19T08:31:12.311Z,99.90
2023-12-19T08:33:42.507Z,99.90
2023-12-19T08:36:32.337Z,99.90
2023-12-19T08:38:57.570Z,99.90
2023-12-19T08:41:25.296Z,99.90
2023-12-19T08:43:53.207Z,99.90
2023-12-19T08:46:20.940Z,99.90
2023-12-19T08:48:49.811Z,99.90
2023-12-19T08:51:18.712Z,99.90
2023-12-19T08:53:46.084Z,99.90
2023-12-19T08:56:13.448Z,99.90
2023-12-19T08:58:40.834Z,99.90
2023-12-19T09:01:08.254Z,99.90
2023-12-19T09:03:36.034Z,99.90
2023-12-19T09:06:03.599Z,99.90
2023-12-19T09:08:30.896Z,99.90
2023-12-19T09:10:58.202Z,99.90
2023-12-19T09:13:25.676Z,99.90
2023-12-19T09:15:53.645Z,99.90
2023-12-19T09:18:25.371Z,99.90
2023-12-19T09:20:52.967Z,99.90
2023-12-19T09:23:20.323Z,99.90
2023-12-19T09:25:47.689Z,99.90
2023-12-19T09:28:15.258Z,99.90
2023-12-19T09:30:42.656Z,99.90
2023-12-19T09:33:10.074Z,99.90
2023-12-19T09:35:37.432Z,99.90
2023-12-19T09:38:05.502Z,99.90
2023-12-19T09:40:33.869Z,99.90
2023-12-19T09:43:01.416Z,99.90
2023-12-19T09:45:28.886Z,99.90
2023-12-19T09:48:00.703Z,99.90
2023-12-19T09:50:32.281Z,99.90
2023-12-19T09:53:01.208Z,99.90
2023-12-19T09:55:30.333Z,99.90
2023-12-19T09:57:59.597Z,99.90
2023-12-19T10:00:30.508Z,99.90
2023-12-19T10:02:58.276Z,99.90
2023-12-19T10:05:25.649Z,99.90
2023-12-19T10:07:53.074Z,99.90
2023-12-19T10:10:20.914Z,99.90
2023-12-19T10:12:57.143Z,99.90
2023-12-19T10:15:27.034Z,99.90
2023-12-19T10:18:05.212Z,99.90
2023-12-19T10:20:33.212Z,99.90
2023-12-19T10:23:04.556Z,99.90
2023-12-19T10:25:39.451Z,99.90
2023-12-19T10:28:13.746Z,99.90
2023-12-19T10:30:42.089Z,99.90
2023-12-19T10:33:09.877Z,99.90
2023-12-19T10:35:38.131Z,99.90
2023-12-19T10:38:08.507Z,99.90
2023-12-19T10:40:37.091Z,99.90
2023-12-19T10:43:04.950Z,99.90
2023-12-19T10:45:34.091Z,99.90
2023-12-19T10:48:01.961Z,99.90
2023-12-19T10:50:30.411Z,99.90
2023-12-19T10:53:05.092Z,99.90
2023-12-19T10:55:42.460Z,99.90
2023-12-19T10:58:13.718Z,99.90
2023-12-19T11:00:43.047Z,99.90
2023-12-19T11:03:38.925Z,99.90
2023-12-19T11:06:11.018Z,99.90
2023-12-19T11:08:41.697Z,99.90
2023-12-19T11:11:20.149Z,99.90
2023-12-19T11:13:49.613Z,99.90
2023-12-19T11:16:26.965Z,99.90
2023-12-19T11:19:09.467Z,99.90
2023-12-19T11:21:45.635Z,99.90
2023-12-19T11:24:31.592Z,99.90
2023-12-19T11:27:12.990Z,99.90
2023-12-19T11:29:57.441Z,99.90
2023-12-19T11:32:27.930Z,99.90
2023-12-19T11:35:15.693Z,99.90
2023-12-19T11:37:47.619Z,99.90
2023-12-19T11:40:47.308Z,99.90
2023-12-19T11:43:30.452Z,99.90
2023-12-19T11:46:04.705Z,99.90
2023-12-19T11:48:45.339Z,99.90
2023-12-19T11:51:13.109Z,99.90
2023-12-19T11:53:41.899Z,99.90
2023-12-19T11:56:13.582Z,99.90
2023-12-19T11:58:52.300Z,99.90
2023-12-19T12:01:21.926Z,99.90
2023-12-19T12:03:49.500Z,99.90
2023-12-19T12:06:21.115Z,99.90
2023-12-19T12:08:55.252Z,99.90
2023-12-19T12:11:22.873Z,99.50
2023-12-19T12:14:10.399Z,99.90
2023-12-19T12:16:38.218Z,99.90
2023-12-19T12:19:12.265Z,99.90
2023-12-19T12:21:52.364Z,99.90
2023-12-19T12:24:31.078Z,99.90
2023-12-19T12:27:10.779Z,99.90
2023-12-19T12:29:39.166Z,99.40
2023-12-19T12:32:07.417Z,99.90
2023-12-19T12:34:34.954Z,99.90
2023-12-19T12:37:03.719Z,99.20
2023-12-19T12:39:31.489Z,99.90
2023-12-19T12:42:06.515Z,99.90
2023-12-19T12:44:34.875Z,98.90
2023-12-19T12:47:04.645Z,98.50
2023-12-19T12:49:33.592Z,98.30
2023-12-19T12:52:01.220Z,97.30
2023-12-19T12:54:31.577Z,96.60
2023-12-19T12:56:59.261Z,97.60
2023-12-19T12:59:28.513Z,97.80
2023-12-19T13:01:56.433Z,98.20
2023-12-19T13:04:25.098Z,97.20
2023-12-19T13:06:52.586Z,98.10
2023-12-19T13:09:22.677Z,97.40
2023-12-19T13:11:55.175Z,96.30
2023-12-19T13:14:23.381Z,95.90
2023-12-19T13:16:50.722Z,96.80
2023-12-19T13:19:19.387Z,96.20
2023-12-19T13:21:47.483Z,97.50
2023-12-19T13:24:15.920Z,97.60
2023-12-19T13:26:43.309Z,97.90
2023-12-19T13:29:10.623Z,98.90
2023-12-19T13:31:38.893Z,98.70
2023-12-19T13:34:06.619Z,98.10
2023-12-19T13:36:39.630Z,99.10
2023-12-19T13:39:08.957Z,99.80
2023-12-19T13:41:36.702Z,99.70
2023-12-19T13:44:04.019Z,99.50
2023-12-19T13:46:31.301Z,99.80
2023-12-19T13:48:58.929Z,99.90
2023-12-19T13:51:26.381Z,99.70
2023-12-19T13:53:53.669Z,99.80
2023-12-19T13:56:22.097Z,98.90
2023-12-19T13:58:49.896Z,99.70
2023-12-19T14:01:17.549Z,99.30
2023-12-19T14:03:45.383Z,99.90
2023-12-19T14:06:13.199Z,99.90
2023-12-19T14:08:46.343Z,99.90
2023-12-19T14:11:13.719Z,99.90
2023-12-19T14:13:41.058Z,99.90
2023-12-19T14:16:11.452Z,99.90
2023-12-19T14:18:40.617Z,99.90
2023-12-19T14:21:08.113Z,99.90
2023-12-19T14:23:36.825Z,99.90
2023-12-19T14:26:05.632Z,99.90
2023-12-19T14:28:33.260Z,99.90
2023-12-19T14:31:00.911Z,99.80
2023-12-19T14:33:30.174Z,99.50
2023-12-19T14:35:58.649Z,99.30
2023-12-19T14:38:25.913Z,99.90
2023-12-19T14:40:53.325Z,99.60
2023-12-19T14:43:25.178Z,99.00
2023-12-19T14:45:52.626Z,99.50
2023-12-19T14:48:20.140Z,99.90
2023-12-19T14:50:48.012Z,99.90
2023-12-19T14:53:15.483Z,99.50
2023-12-19T14:55:43.009Z,99.10
2023-12-19T14:58:10.478Z,99.30
2023-12-19T15:00:38.425Z,98.80
2023-12-19T15:03:06.616Z,99.20
2023-12-19T15:05:33.930Z,99.90
2023-12-19T15:08:01.229Z,99.90
2023-12-19T15:10:28.529Z,99.90
2023-12-19T15:12:56.023Z,99.90
2023-12-19T15:15:24.892Z,99.90
2023-12-19T15:17:54.671Z,99.90
2023-12-19T15:20:22.290Z,99.90
2023-12-19T15:22:50.201Z,99.90
2023-12-19T15:25:17.830Z,99.90
2023-12-19T15:27:45.389Z,99.90
2023-12-19T15:30:14.153Z,99.90
2023-12-19T15:32:42.705Z,99.90
2023-12-19T15:35:10.171Z,99.90
2023-12-19T15:37:37.519Z,99.90
2023-12-19T15:40:05.367Z,99.90
2023-12-19T15:42:32.751Z,99.90
2023-12-19T15:45:00.062Z,99.90
2023-12-19T15:47:27.318Z,99.90
2023-12-19T15:49:54.711Z,99.90
2023-12-19T15:52:22.130Z,99.90
2023-12-19T15:54:49.618Z,99.90
2023-12-19T15:57:16.969Z,99.90
2023-12-19T15:59:44.515Z,99.90
2023-12-19T16:02:12.008Z,99.90
2023-12-19T16:04:45.954Z,99.90
2023-12-19T16:07:13.759Z,99.90
2023-12-19T16:09:41.808Z,99.90
2023-12-19T16:12:10.223Z,99.90
2023-12-19T16:14:37.645Z,99.90
2023-12-19T16:17:05.048Z,99.90
2023-12-19T16:19:32.636Z,99.90
2023-12-19T16:22:00.047Z,99.90
2023-12-19T16:24:27.389Z,99.90
2023-12-19T16:26:54.719Z,99.90
2023-12-19T16:29:22.037Z,99.90
2023-12-19T16:31:52.816Z,99.90
2023-12-19T16:34:21.606Z,99.90
2023-12-19T16:36:49.523Z,99.90
2023-12-19T16:39:16.887Z,99.90
2023-12-19T16:41:44.219Z,99.90
2023-12-19T16:44:11.598Z,99.90
2023-12-19T16:46:42.771Z,99.90
2023-12-19T16:49:12.874Z,99.90
2023-12-19T16:51:40.642Z,99.90
2023-12-19T16:54:08.168Z,99.90
2023-12-19T16:56:37.394Z,99.90
2023-12-19T16:59:05.865Z,99.90
2023-12-19T17:01:33.282Z,99.90
2023-12-19T17:04:00.959Z,99.90
2023-12-19T17:06:30.623Z,99.90
2023-12-19T17:08:57.913Z,99.90
2023-12-19T17:11:26.949Z,99.90
2023-12-19T17:13:55.044Z,99.90
2023-12-19T17:16:22.392Z,99.90
2023-12-19T17:18:49.785Z,99.90
2023-12-19T17:21:17.121Z,99.90
2023-12-19T17:23:49.103Z,99.90
2023-12-19T17:26:21.506Z,99.90
2023-12-19T17:28:49.194Z,99.90
2023-12-19T17:31:16.733Z,99.90
2023-12-19T17:33:44.154Z,99.90
2023-12-19T17:36:12.987Z,99.90
2023-12-19T17:38:40.510Z,99.90
2023-12-19T17:41:07.837Z,99.90
2023-12-19T17:43:35.162Z,99.90
2023-12-19T17:46:02.510Z,99.90
2023-12-19T17:48:29.833Z,99.90
2023-12-19T17:50:57.146Z,99.90
2023-12-19T17:53:24.516Z,99.90
2023-12-19T17:55:51.810Z,99.90
2023-12-19T17:58:19.148Z,99.90
2023-12-19T18:00:46.476Z,99.90
2023-12-19T18:03:14.548Z,99.90
2023-12-19T18:05:41.847Z,99.90
2023-12-19T18:08:09.153Z,99.90
2023-12-19T18:10:38.404Z,99.90
2023-12-19T18:13:05.879Z,99.90
2023-12-19T18:15:33.279Z,99.90
2023-12-19T18:18:00.716Z,99.90
2023-12-19T18:20:28.060Z,99.90
2023-12-19T18:22:55.353Z,99.90
2023-12-19T18:25:22.667Z,99.90
2023-12-19T18:27:50.139Z,99.90
2023-12-19T18:30:17.711Z,99.90
2023-12-19T18:32:45.897Z,99.90
2023-12-19T18:35:15.111Z,99.90
2023-12-19T18:37:42.406Z,99.90
2023-12-19T18:40:10.219Z,99.90
2023-12-19T18:42:37.710Z,99.90
2023-12-19T18:45:06.833Z,99.90
2023-12-19T18:47:35.775Z,99.90
2023-12-19T18:50:04.330Z,99.90
2023-12-19T18:52:31.719Z,99.90
2023-12-19T18:54:59.146Z,99.90
2023-12-19T18:57:26.454Z,99.90
2023-12-19T18:59:53.880Z,99.90
2023-12-19T19:02:21.227Z,99.90
2023-12-19T19:04:49.461Z,99.90
2023-12-19T19:07:16.893Z,99.90
2023-12-19T19:09:45.771Z,99.90
2023-12-19T19:12:13.179Z,99.90
2023-12-19T19:14:40.487Z,99.90
2023-12-19T19:17:09.437Z,99.90
2023-12-19T19:19:37.169Z,99.90
2023-12-19T19:22:05.199Z,99.90
2023-12-19T19:24:32.842Z,99.90
2023-12-19T19:27:00.415Z,99.90
2023-12-19T19:29:28.030Z,99.90
2023-12-19T19:31:55.776Z,99.90
2023-12-19T19:34:26.093Z,99.90
2023-12-19T19:36:54.245Z,99.90
2023-12-19T19:39:23.274Z,99.90
2023-12-19T19:41:50.867Z,99.90
2023-12-19T19:44:18.168Z,99.90
2023-12-19T19:46:45.630Z,99.90
2023-12-19T19:49:13.798Z,99.90
2023-12-19T19:51:41.272Z,99.90
2023-12-19T19:54:08.628Z,99.90
2023-12-19T19:56:35.941Z,99.90
2023-12-19T19:59:04.616Z,99.90
2023-12-19T20:01:32.320Z,99.90
2023-12-19T20:03:59.933Z,99.90
2023-12-19T20:06:27.297Z,99.90
2023-12-19T20:08:54.658Z,99.90
2023-12-19T20:11:21.965Z,99.90
2023-12-19T20:13:49.304Z,99.90
2023-12-19T20:16:16.630Z,99.90
2023-12-19T20:18:44.197Z,99.90
2023-12-19T20:21:12.087Z,99.90
2023-12-19T20:23:39.433Z,99.90
2023-12-19T20:26:06.688Z,99.90
2023-12-19T20:28:34.929Z,99.90
2023-12-19T20:31:02.526Z,99.90
2023-12-19T20:33:29.891Z,99.90
2023-12-19T20:35:57.228Z,99.90
2023-12-19T20:38:24.603Z,99.90
2023-12-19T20:40:52.088Z,99.90
2023-12-19T20:43:19.542Z,99.90
2023-12-19T20:45:46.974Z,99.90
2023-12-19T20:48:16.724Z,99.90
2023-12-19T20:50:44.429Z,99.90
2023-12-19T20:53:11.854Z,99.90
2023-12-19T20:55:39.273Z,99.90
2023-12-19T20:58:07.120Z,99.90
2023-12-19T21:00:35.054Z,99.90
2023-12-19T21:03:02.406Z,99.90
2023-12-19T21:05:29.734Z,99.90
2023-12-19T21:07:57.101Z,99.90
2023-12-19T21:10:24.357Z,99.90
2023-12-19T21:12:51.686Z,99.90
2023-12-19T21:15:19.072Z,99.90
2023-12-19T21:17:46.466Z,99.90
2023-12-19T21:20:14.395Z,99.90
2023-12-19T21:22:42.000Z,99.90
2023-12-19T21:25:09.702Z,99.90
2023-12-19T21:27:37.294Z,99.90
2023-12-19T21:30:05.827Z,99.90
2023-12-19T21:32:33.231Z,99.90
2023-12-19T21:35:04.272Z,99.90
2023-12-19T21:37:32.236Z,99.90
2023-12-19T21:40:00.047Z,99.90
2023-12-19T21:42:27.840Z,99.90
2023-12-19T21:44:55.521Z,99.90
2023-12-19T21:47:23.026Z,99.90
2023-12-19T21:49:50.522Z,99.90
2023-12-19T21:52:20.063Z,99.90
2023-12-19T21:54:47.622Z,99.90
2023-12-19T21:57:14.985Z,99.90
2023-12-19T21:59:44.716Z,99.90
2023-12-19T22:02:15.349Z,99.90
2023-12-19T22:04:42.930Z,99.90
2023-12-19T22:07:10.472Z,99.90
2023-12-19T22:09:40.986Z,99.90
2023-12-19T22:12:10.630Z,99.90
2023-12-19T22:14:37.896Z,99.90
2023-12-19T22:17:05.172Z,99.90
2023-12-19T22:19:32.619Z,99.90
2023-12-19T22:22:00.192Z,99.90
2023-12-19T22:24:27.586Z,99.90
2023-12-19T22:26:54.955Z,99.90
2023-12-19T22:29:22.246Z,99.90
2023-12-19T22:31:49.604Z,99.90
2023-12-19T22:34:16.964Z,99.90
2023-12-19T22:36:45.220Z,99.90
2023-12-19T22:39:13.048Z,99.90
2023-12-19T22:41:40.399Z,99.90
2023-12-19T22:44:07.678Z,99.90
2023-12-19T22:46:38.941Z,99.90
2023-12-19T22:49:06.299Z,99.90
2023-12-19T22:51:36.021Z,99.90
2023-12-19T22:54:03.355Z,99.90
2023-12-19T22:56:30.636Z,99.90
2023-12-19T22:58:58.129Z,99.90
2023-12-19T23:01:31.131Z,99.90
2023-12-19T23:03:58.895Z,99.90
2023-12-19T23:06:26.332Z,99.90
2023-12-19T23:08:54.103Z,99.90
2023-12-19T23:11:21.531Z,99.90
2023-12-19T23:13:49.051Z,99.90
2023-12-19T23:16:16.601Z,99.90
2023-12-19T23:18:44.440Z,99.90
2023-12-19T23:21:12.140Z,99.90
2023-12-19T23:23:39.537Z,99.90
2023-12-19T23:26:07.229Z,99.90
2023-12-19T23:28:34.652Z,99.90
2023-12-19T23:31:02.114Z,99.90
2023-12-19T23:33:29.488Z,99.90
2023-12-19T23:35:56.832Z,99.90
2023-12-19T23:38:24.123Z,99.90
2023-12-19T23:40:51.451Z,99.90
2023-12-19T23:43:19.913Z,99.90
2023-12-19T23:45:48.910Z,99.90
2023-12-19T23:48:17.034Z,99.90
2023-12-19T23:50:44.488Z,99.90
2023-12-19T23:53:11.879Z,99.90
2023-12-19T23:55:40.787Z,99.90
2023-12-19T23:58:10.894Z,99.90
